| DS18B20 | SHTC3 | PZEM-004T | WiFi | ||||||||
|---|---|---|---|---|---|---|---|---|---|---|---|
| ID | Date d/m/Y & Time | data1 สูง | data2 ต่ำ | data3 นอก | temp pcb | hum pcb | Volt | Amp | Watt | rssi | Time |
| 14620 | 21/08/2026 09:55:40 | 31.5  | 29.9  | 32.3  | 32.4  | 63.0  | 232.6  | 0.04  | 4.6  | -78  | 09:55 |
| 14619 | 21/08/2026 09:50:56 | 31.4  | 29.9  | 32.4  | 32.2  | 63.2  | 232.5  | 0.04  | 4.6  | -78  | 09:50 |
| 14618 | 21/08/2026 09:46:13 | 31.2  | 29.8  | 32.2  | 32.1  | 63.3  | 232.1  | 0.04  | 4.6  | -77  | 09:46 |
| 14617 | 21/08/2026 09:41:29 | 31.1  | 29.7  | 32.0  | 32.0  | 63.5  | 232.2  | 0.04  | 4.6  | -78  | 09:41 |
| 14616 | 21/08/2026 09:36:46 | 30.9  | 29.6  | 31.8  | 31.9  | 63.6  | 232.4  | 0.04  | 4.6  | -78  | 09:36 |
| 14615 | 21/08/2026 09:32:03 | 30.8  | 29.6  | 31.5  | 31.5  | 63.8  | 231.4  | 0.04  | 4.6  | -78  | 09:32 |
| 14614 | 21/08/2026 09:27:18 | 30.6  | 29.5  | 31.4  | 31.6  | 64.2  | 231.3  | 0.04  | 4.6  | -78  | 09:27 |
| 14613 | 21/08/2026 09:22:35 | 30.4  | 29.4  | 31.0  | 31.5  | 64.3  | 231.6  | 0.04  | 4.6  | -77  | 09:22 |
| 14612 | 21/08/2026 09:17:52 | 30.3  | 29.4  | 31.0  | 31.1  | 64.5  | 229.7  | 0.04  | 4.6  | -77  | 09:17 |
| 14611 | 21/08/2026 09:13:09 | 30.2  | 29.3  | 30.2  | 31.2  | 64.7  | 231.6  | 0.04  | 4.6  | -76  | 09:13 |
| 14610 | 21/08/2026 09:08:25 | 30.1  | 29.2  | 30.2  | 31.1  | 64.8  | 232.0  | 0.04  | 4.6  | -78  | 09:08 |
| 14609 | 21/08/2026 09:03:41 | 30.1  | 29.2  | 30.4  | 31.0  | 64.9  | 231.7  | 0.04  | 4.6  | -76  | 09:03 |
| 14608 | 21/08/2026 08:58:58 | 29.9  | 29.2  | 30.6  | 30.8  | 65.0  | 230.3  | 0.04  | 4.6  | -78  | 08:58 |
| 14607 | 21/08/2026 08:54:15 | 29.8  | 29.1  | 30.1  | 31.0  | 65.2  | 229.7  | 0.04  | 4.6  | -76  | 08:54 |
| 14606 | 21/08/2026 08:49:31 | 29.8  | 29.1  | 30.0  | 30.7  | 65.2  | 230.1  | 0.04  | 4.6  | -78  | 08:49 |
| 14605 | 21/08/2026 08:44:47 | 29.8  | 29.1  | 29.7  | 30.8  | 65.4  | 229.7  | 0.04  | 4.6  | -79  | 08:44 |
| 14604 | 21/08/2026 08:40:04 | 29.8  | 29.1  | 29.5  | 30.7  | 65.4  | 229.9  | 0.04  | 4.6  | -77  | 08:40 |
| 14603 | 21/08/2026 08:35:21 | 29.7  | 29.0  | 29.5  | 30.6  | 65.6  | 228.6  | 0.04  | 4.6  | -78  | 08:35 |
| 14602 | 21/08/2026 08:30:37 | 29.6  | 29.0  | 29.8  | 30.4  | 65.7  | 229.3  | 0.04  | 4.6  | -78  | 08:30 |
| 14601 | 21/08/2026 08:25:53 | 29.4  | 28.9  | 30.1  | 30.5  | 65.7  | 229.4  | 0.04  | 4.6  | -76  | 08:25 |
| 14600 | 21/08/2026 08:21:09 | 29.3  | 28.9  | 29.7  | 30.2  | 66.0  | 228.7  | 0.04  | 4.6  | -77  | 08:21 |
| 14599 | 21/08/2026 08:16:26 | 29.2  | 28.9  | 29.1  | 30.4  | 66.2  | 228.6  | 0.04  | 4.6  | -77  | 08:16 |
| 14598 | 21/08/2026 08:11:42 | 29.2  | 28.9  | 29.3  | 30.1  | 66.4  | 229.1  | 0.04  | 4.6  | -78  | 08:11 |
| 14597 | 21/08/2026 08:06:58 | 29.1  | 28.8  | 29.5  | 30.0  | 66.7  | 228.9  | 0.04  | 4.6  | -78  | 08:06 |